Charlevoix, Michigan
Current Conditions -  °F | °C
As of 7:55 AM on Wednesday 26 Nov 2014 (Local Time) from KCVX Reporting Station
Overcast Overcast  
Wind Chill: -8°   Ceiling: 2800
Heat Index: -4°   Visibility: 10mi
Dew Point: -6°   Wind: 7mph
Humidity: 86%   Direction: 200°SSW
Pressure: 30.18"   Gusts: NA
Location:  45.32°N, 85.26°W
Report Text: KCVX 261255Z AUTO 20006KT 10SM OVC028 M04/M06 A3018 RMK AO2 T10361056
Loading
Personal Weather Stations






























Interactive Weather Map New forecast layout! Learn more

10-Day Weather Forecast

Advertisements
Track Severe Weather on mobile